• Join FlightAware (Why Join?)
  • Login
  • US Flag 
08:14AM EST


 

Airport Tracker/Info


-or-


 

Live Flight TrackerFlight Track Log ✈ SKW5564 ✈ 09-Sep-2013 ✈ KATL - KDEN

Flight Track Log - Related Links

Times and Time Zones

All times are in EDT time to prevent confusion due to time zone crossing. See the SKW5564 flight status page for this flight to view local times or setup timezone preferences in your user account.

Time Position Orientation Groundspeed Altitude Reporting Facility
EDT Latitude Longitude Course Direction KTS MPH feet Rate Location/Type
06:49PM 33.6519 -84.3756 282° West 447 514 2,600  Level Atlanta Center
06:50PM 33.6728 -84.3058 70° East 291 335 4,200 2,050 Climbing Atlanta Center
06:51PM 33.8001 -84.7988 270° West  Level FlightAware Approximate
06:51PM 33.7378 -84.2811 18° North 225 259 6,700  Level Atlanta Center
06:52PM 33.7927 -84.9464 259° West  Level FlightAware Approximate
06:52PM 33.8128 -84.3239 335° Northwest 305 351 9,200  Level Atlanta Center
06:53PM 33.7698 -85.0922 259° West  Level FlightAware Approximate
06:53PM 33.8103 -84.4164 268° West 328 377 11,400  Level Atlanta Center
06:54PM 33.7538 -85.2377 282° West  Level FlightAware Approximate
06:54PM 33.8100 -84.5189 270° West 333 383 13,500  Level Atlanta Center
06:55PM 33.7802 -85.3826 282° West  Level FlightAware Approximate
06:55PM 33.8117 -84.6389 271° West 333 383 15,900  Level Atlanta Center
06:56PM 33.8089 -84.7539 268° West 333 383 17,800 1,700 Climbing Atlanta Center
06:57PM 33.8081 -84.8739 270° West 349 402 19,300 1,700 Climbing Atlanta Center
06:58PM 33.7967 -84.9986 264° West 378 435 21,200 1,750 Climbing Atlanta Center
06:59PM 33.7811 -85.1211 261° West 378 435 22,800 1,500 Climbing Atlanta Center
07:00PM 33.7717 -85.2433 265° West 373 429 24,200 1,450 Climbing Atlanta Center
07:01PM 33.7933 -85.3686 282° West 373 429 25,700 1,300 Climbing Atlanta Center
07:02PM 33.8147 -85.4989 281° West 385 443 26,800 1,250 Climbing Atlanta Center
07:03PM 33.8383 -85.6269 283° West 396 456 28,200 1,300 Climbing Atlanta Center
07:04PM 33.8761 -85.7553 290° West 396 456 29,400 1,200 Climbing Atlanta Center
07:05PM 33.9100 -85.8761 289° West 395 455 30,600 1,150 Climbing Atlanta Center
07:06PM 33.9539 -86.0022 293° West 401 461 31,700 850 Climbing Atlanta Center
07:07PM 33.9936 -86.1333 290° West 408 470 32,300 950 Climbing Atlanta Center
07:08PM 34.0286 -86.2672 288° West 415 478 33,600 1,000 Climbing Atlanta Center
07:09PM 34.0658 -86.4008 289° West 420 483 34,300 600 Climbing Atlanta Center
07:10PM 34.1028 -86.5375 288° West 425 489 34,800 350 Climbing Atlanta Center
07:11PM 34.1439 -86.6767 290° West 430 495 35,000 104 Climbing Atlanta Center
07:12PM 34.1803 -86.8019 289° West 430 495 35,000  Level Memphis Center
07:13PM 34.2128 -86.9211 288° West 438 504 35,000 400 Level Memphis Center
07:14PM 34.2500 -87.0606 288° West 426 490 35,800 900 Climbing Memphis Center
07:15PM 34.2889 -87.1922 290° West 426 490 36,800 950 Climbing Memphis Center
07:16PM 34.3303 -87.3439 288° West 436 502 37,700 600 Climbing Memphis Center
07:17PM 34.3667 -87.4761 288° West 430 495 38,000 150 Climbing Memphis Center
07:18PM 34.3992 -87.6161 286° West 425 489 38,000  Level Memphis Center
07:19PM 34.4269 -87.7511 284° West 425 489 38,000  Level Memphis Center
07:20PM 34.4403 -87.8942 276° West 425 489 38,000  Level Memphis Center
07:21PM 34.4556 -88.0322 278° West 425 489 38,000  Level Memphis Center
07:22PM 34.4686 -88.1731 276° West 425 489 38,000  Level Memphis Center
07:23PM 34.4836 -88.3186 277° West 431 496 38,000  Level Memphis Center
07:24PM 34.4983 -88.4594 277° West 431 496 38,000  Level Memphis Center
07:25PM 34.5128 -88.6003 277° West 426 490 38,000  Level Memphis Center
07:26PM 34.5272 -88.7436 277° West 426 490 38,000  Level Memphis Center
07:27PM 34.5372 -88.8669 276° West 421 484 38,000  Level Memphis Center
07:28PM 34.5639 -89.0053 283° West 426 490 38,000  Level Memphis Center
07:29PM 34.6236 -89.1431 298° West 426 490 38,000  Level Memphis Center
07:30PM 34.6833 -89.2711 300° West 426 490 38,000  Level Memphis Center
07:31PM 34.7428 -89.3967 300° West 432 497 38,000  Level Memphis Center
07:32PM 34.8022 -89.5225 300° West 438 504 38,000  Level Memphis Center
07:33PM 34.8614 -89.6511 299° West 438 504 38,000  Level Memphis Center
07:34PM 34.9206 -89.7797 299° West 438 504 38,000  Level Memphis Center
07:35PM 34.9836 -89.9033 302° West 456 525 38,000  Level Memphis Center
07:36PM 35.0319 -90.0325 295° West 441 507 38,000  Level Memphis Center
07:37PM 35.0781 -90.1794 291° West 429 494 38,000  Level Memphis Center
07:38PM 35.1222 -90.3164 292° West 429 494 38,000  Level Memphis Center
07:39PM 35.1658 -90.4536 291° West 429 494 38,000  Level Memphis Center
07:40PM 35.2075 -90.5908 290° West 434 499 38,000  Level Memphis Center
07:41PM 35.2508 -90.7258 291° West 429 494 38,000  Level Memphis Center
07:42PM 35.2942 -90.8633 291° West 434 499 38,000  Level Memphis Center
07:43PM 35.3375 -91.0036 291° West 434 499 38,000  Level Memphis Center
07:44PM 35.3722 -91.1236 290° West 428 493 38,000  Level Memphis Center
07:45PM 35.4211 -91.2819 291° West 441 507 38,000  Level Memphis Center
07:46PM 35.4619 -91.4072 292° West 446 513 38,000  Level Memphis Center
07:47PM 35.5025 -91.5431 290° West 446 513 38,000  Level Memphis Center
07:48PM 35.5447 -91.6839 290° West 446 513 38,000  Level Memphis Center
07:49PM 35.5869 -91.8275 290° West 451 519 38,000  Level Memphis Center
07:50PM 35.6311 -91.9739 290° West 451 519 38,000  Level Memphis Center
07:51PM 35.6750 -92.1178 291° West 451 519 38,000  Level Memphis Center
07:52PM 35.7167 -92.2619 290° West 451 519 38,000  Level Memphis Center
07:53PM 35.7603 -92.4114 290° West 451 519 38,000  Level Memphis Center
07:54PM 35.8036 -92.5556 290° West 451 519 38,000  Level Memphis Center
07:55PM 35.8506 -92.7183 290° West 451 519 38,000  Level Memphis Center
07:56PM 35.8936 -92.8631 290° West 451 519 38,000  Level Memphis Center
07:57PM 35.9344 -93.0103 289° West 451 519 38,000  Level Memphis Center
07:58PM 35.9769 -93.1606 289° West 456 525 38,000  Level Memphis Center
07:59PM 36.0194 -93.3056 290° West 456 525 38,000  Level Memphis Center
08:00PM 36.0597 -93.4508 289° West 456 525 38,000  Level Memphis Center
08:01PM 36.1019 -93.6014 289° West 456 525 38,000  Level Memphis Center
08:02PM 36.1439 -93.7469 290° West 456 525 38,000  Level Memphis Center
08:03PM 36.1794 -93.8978 286° West 451 519 38,000  Level Memphis Center
08:05PM 36.2603 -94.1975 289° West 453 521 38,000  Level Kansas City Center
08:06PM 36.2803 -94.3500 279° West 449 517 38,000  Level Kansas City Center
08:07PM 36.3028 -94.5017 280° West 447 514 38,000  Level Kansas City Center
08:08PM 36.3242 -94.6561 280° West 452 520 38,000  Level Kansas City Center
08:09PM 36.3494 -94.8392 280° West 450 518 38,000  Level Kansas City Center
08:10PM 36.3706 -94.9908 280° West 450 518 38,000  Level Kansas City Center
08:11PM 36.3908 -95.1372 280° West 447 514 38,000  Level Kansas City Center
08:13PM 36.4111 -95.2883 280° West 444 511 38,000  Level Kansas City Center
08:14PM 36.4311 -95.4422 279° West 448 516 38,000  Level Kansas City Center
08:15PM 36.4525 -95.5961 280° West 451 519 38,000  Level Kansas City Center
08:16PM 36.4781 -95.7783 280° West 459 528 38,000  Level Kansas City Center
08:17PM 36.4981 -95.9317 279° West 453 521 38,000  Level Kansas City Center
08:18PM 36.5186 -96.0858 279° West 453 521 38,000  Level Kansas City Center
08:19PM 36.5381 -96.2394 279° West 451 519 38,000  Level Kansas City Center
08:20PM 36.5617 -96.4250 279° West 452 520 38,000  Level Kansas City Center
08:21PM 36.5819 -96.5806 279° West 453 521 38,000  Level Kansas City Center
08:22PM 36.6006 -96.7364 279° West 456 525 38,000  Level Kansas City Center
08:23PM 36.6200 -96.8925 279° West 456 525 38,000  Level Kansas City Center
08:24PM 36.6383 -97.0481 278° West 455 524 38,000  Level Kansas City Center
08:25PM 36.6572 -97.2039 279° West 455 524 38,000  Level Kansas City Center
08:26PM 36.6753 -97.3583 278° West 454 522 38,000  Level Kansas City Center
08:27PM 36.6956 -97.5306 278° West 454 522 38,000  Level Kansas City Center
08:28PM 36.7133 -97.6875 278° West 455 524 38,000  Level Kansas City Center
08:29PM 36.7314 -97.8478 278° West 452 520 38,000  Level Kansas City Center
08:30PM 36.7481 -98.0033 278° West 452 520 38,000  Level Kansas City Center
08:31PM 36.7658 -98.1578 278° West 452 520 38,000  Level Kansas City Center
08:32PM 36.7861 -98.3417 278° West 449 517 38,000  Level Kansas City Center
08:33PM 36.8028 -98.4953 278° West 448 516 38,000  Level Kansas City Center
08:34PM 36.8194 -98.6469 278° West 445 512 38,000  Level Kansas City Center
08:35PM 36.8353 -98.7972 278° West 441 507 38,000  Level Kansas City Center
08:36PM 36.8528 -98.9492 278° West 442 509 38,000  Level Kansas City Center
08:37PM 36.8678 -99.1003 277° West 442 509 38,000  Level Kansas City Center
08:38PM 36.8825 -99.2508 277° West 440 506 38,000  Level Kansas City Center
08:39PM 36.9003 -99.4300 277° West 438 504 38,000  Level Kansas City Center
08:40PM 36.9156 -99.5806 277° West 437 503 38,000  Level Kansas City Center
08:41PM 36.9300 -99.7303 277° West 436 502 38,000  Level Kansas City Center
08:42PM 36.9450 -99.8803 277° West 436 502 38,000  Level Kansas City Center
08:43PM 36.9597 -100.0336 277° West 440 506 38,000  Level Kansas City Center
08:44PM 36.9761 -100.2108 277° West 444 511 38,000  Level Kansas City Center
08:46PM 36.9983 -100.4567 277° West 444 511 38,000  Level Denver Center
08:47PM 37.0114 -100.6033 276° West 443 510 38,000  Level Denver Center
08:48PM 37.0261 -100.7731 276° West 440 506 38,000  Level Denver Center
08:49PM 37.0422 -100.9172 278° West 436 502 38,000  Level Denver Center
08:50PM 37.0947 -101.0453 297° West 433 498 38,000  Level Denver Center
08:51PM 37.1844 -101.1725 312° West 433 498 38,000  Level Denver Center
08:52PM 37.2861 -101.2383 333° Northwest 430 495 38,000  Level Denver Center
08:53PM 37.4094 -101.3072 336° Northwest 431 496 38,000  Level Denver Center
08:54PM 37.5128 -101.3697 334° Northwest 429 494 38,000  Level Denver Center
08:55PM 37.6439 -101.3994 350° North 427 491 38,000  Level Denver Center
08:56PM 37.7597 -101.4081 357° North 431 496 38,000  Level Denver Center
08:57PM 37.8761 -101.4181 356° North 435 501 38,000  Level Denver Center
08:59PM 38.0119 -101.4289 356° North 436 502 38,000  Level Denver Center
09:00PM 38.1292 -101.4503 352° North 444 511 38,000  Level Denver Center
09:01PM 38.2417 -101.5486 326° Northwest 443 510 38,000  Level Denver Center
09:02PM 38.3025 -101.6792 301° West 449 517 38,000 48 Level Denver Center
09:03PM 38.3347 -101.8503 284° West 448 516 38,100 -387 Climbing Denver Center
09:04PM 38.3589 -101.9953 282° West 441 507 37,200 -968 Descending Denver Center
09:05PM 38.3853 -102.1581 282° West 423 487 36,100 -774 Descending Denver Center
09:06PM 38.4092 -102.2953 283° West 416 479 35,600 -823 Descending Denver Center
09:07PM 38.4447 -102.4486 287° West 408 470 34,400 -1,548 Descending Denver Center
09:08PM 38.4864 -102.5789 292° West 415 478 32,400 -2,226 Descending Denver Center
09:09PM 38.5364 -102.7322 293° West 419 482 29,800 -2,129 Descending Denver Center
09:10PM 38.5808 -102.8672 293° West 406 467 28,000 -871 Descending Denver Center
09:11PM 38.6169 -102.9808 292° West 345 397 28,000 -242 Level Denver Center
09:12PM 38.6506 -103.0906 291° West 333 383 27,500 -484 Descending Denver Center
09:13PM 38.6861 -103.2044 292° West 344 396 27,000 -242 Descending Denver Center
09:14PM 38.7219 -103.3153 293° West 340 391 27,000  Level Denver Center
09:15PM 38.7561 -103.4236 292° West 331 381 27,000 -435 Level Denver Center
09:16PM 38.7961 -103.5544 291° West 335 386 26,100 -581 Descending Denver Center
09:17PM 38.8350 -103.6553 296° West 336 387 25,800 -768 Descending Denver Center
09:18PM 38.9300 -103.6247 14° North 372 428 24,500 -1,392 Descending Denver Center
09:19PM 38.9125 -103.5064 101° East 371 427 22,900 -1,694 Descending Denver Center
09:20PM 38.8133 -103.5344 192° South 361 415 21,000 -1,707 Descending Denver Center
09:21PM 38.8186 -103.6650 273° West 392 451 19,400 -1,610 Descending Denver Center
09:22PM 38.8408 -103.8136 281° West 383 441 17,700 -1,597 Descending Denver Center
09:23PM 38.8583 -103.9464 280° West 380 437 16,100 -823 Descending Denver Center
09:24PM 38.8753 -104.0806 279° West 380 437 16,000 -491 Descending Denver Center
09:25PM 38.8908 -104.1869 281° West 381 438 15,200 -1,065 Descending Denver Center
09:25PM 38.8936 -104.2186 276° West 380 437 14,900 -1,026 Descending Denver Center
09:26PM 38.9078 -104.3394 279° West 369 425 13,900 -1,016 Descending Denver Center
09:27PM 38.9233 -104.4589 280° West 323 372 12,800 -919 Descending Denver Center
09:28PM 38.9569 -104.5497 295° West 335 386 12,000 -390 Descending Denver Center
09:29PM 39.0636 -104.5694 352° North 325 374 12,000  Level Denver Center
09:31PM 39.1492 -104.5925 348° North 320 368 12,000 -339 Level Denver Center
09:32PM 39.2397 -104.6386 338° Northwest 323 372 11,300 -968 Descending Denver Center
09:33PM 39.3264 -104.6483 355° North 310 357 10,000 -1,113 Descending Denver Center
09:34PM 39.4050 -104.6475 360° North 286 329 9,000 -488 Descending Denver Center
09:35PM 39.4867 -104.6458 North 275 316 9,000  Level Denver Center
09:36PM 39.5631 -104.6447 North 275 316 9,000  Level Denver Center
09:37PM 39.6369 -104.6444 360° North 268 308 9,000 -581 Level Denver Center
09:38PM 39.7019 -104.6431 North 222 255 7,800 -976 Descending Denver Center
09:39PM 39.7486 -104.6425 North 166 191 7,000 -780 Descending Denver Center
09:40PM 39.7897 -104.6425 360° North 138 159 6,200 -677 Descending Denver Center
09:41PM 39.8231 -104.6411 North 122 140 5,600 -581 Descending Denver Center